Flight Track Log - Related Links

Times and Time Zones

All times are in EDT time to prevent confusion due to time zone crossing. See the SKQ45 flight status page for this flight to view local times or setup timezone preferences in your user account.

Time Position Orientation Groundspeed Altitude Reporting Facility
EDT Latitude Longitude Course Direction KTS MPH feet Rate Location/Type
Thu 12:19:55 AM 38.7458 -90.2461 41° Northeast 164 189 2,300  Level FAA TRACON SMA TRACON (SMA)
Thu 12:20:15 AM 38.7572 -90.2258 54° Northeast 180 207 2,800 1,500 Climbing FAA TRACON SMA TRACON (SMA)
Thu 12:20:35 AM 38.7658 -90.2083 58° Northeast 185 213 3,300 1,200 Climbing FAA TRACON SMA TRACON (SMA)
Thu 12:20:55 AM 38.7744 -90.1900 59° Northeast 194 223 3,600 1,050 Climbing FAA TRACON SMA TRACON (SMA)
Thu 12:21:15 AM 38.7833 -90.1647 66° East 203 234 4,000 1,050 Climbing FAA TRACON SMA TRACON (SMA)
Thu 12:21:35 AM 38.7872 -90.1431 77° East 202 232 4,300 1,050 Climbing FAA TRACON SMA TRACON (SMA)
Thu 12:21:55 AM 38.7892 -90.1219 83° East 198 228 4,700 1,200 Climbing FAA TRACON SMA TRACON (SMA)
Thu 12:22:15 AM 38.7922 -90.0944 82° East 200 230 5,100 900 Climbing FAA TRACON SMA TRACON (SMA)
Thu 12:22:35 AM 38.7961 -90.0722 77° East 205 236 5,300 750 Climbing FAA TRACON SMA TRACON (SMA)
Thu 12:22:55 AM 38.7994 -90.0494 79° East 212 244 5,600 1,050 Climbing FAA TRACON SMA TRACON (SMA)
Thu 12:23:15 AM 38.8058 -90.0214 74° East 215 247 6,000 1,000 Climbing FAA TRACON SMA TRACON (SMA)
Thu 12:23:55 AM 38.8175 -89.9761 72° East 216 249 6,600 1,100 Climbing FAA TRACON SMA TRACON (SMA)
Thu 12:24:15 AM 38.8239 -89.9483 74° East 212 244 7,100 1,200 Climbing FAA TRACON SMA TRACON (SMA)
Thu 12:24:35 AM 38.8286 -89.9258 75° East 212 244 7,400 900 Climbing FAA TRACON SMA TRACON (SMA)
Thu 12:24:55 AM 38.8333 -89.9028 75° East 214 246 7,700 1,050 Climbing FAA TRACON SMA TRACON (SMA)
Thu 12:25:00 AM 39.0553 -90.0086 41° Northeast  Level FlightAware Approximate
Thu 12:25:15 AM 38.8392 -89.8744 75° East 214 246 8,100  Level FAA TRACON SMA TRACON (SMA)
Thu 12:25:35 AM 38.8433 -89.8517 77° East 214 246 8,500 1,050 Climbing FAA TRACON SMA TRACON (SMA)
Thu 12:25:55 AM 38.8486 -89.8286 74° East 217 250 8,800 1,050 Climbing FAA TRACON SMA TRACON (SMA)
Thu 12:26:15 AM 38.8553 -89.8000 73° East 219 252 9,200 1,050 Climbing FAA TRACON SMA TRACON (SMA)
Thu 12:26:35 AM 38.8600 -89.7767 75° East 219 252 9,500 900 Climbing FAA TRACON SMA TRACON (SMA)
Thu 12:26:55 AM 38.8642 -89.7528 77° East 222 255 9,800 900 Climbing FAA TRACON SMA TRACON (SMA)
Thu 12:27:15 AM 38.8711 -89.7231 73° East 225 259 10,100 900 Climbing FAA TRACON SMA TRACON (SMA)
Thu 12:27:35 AM 38.8767 -89.6992 73° East 227 261 10,400 900 Climbing FAA TRACON SMA TRACON (SMA)
Thu 12:27:55 AM 38.8817 -89.6750 75° East 228 262 10,700 600 Climbing FAA TRACON SMA TRACON (SMA)
Thu 12:28:15 AM 38.8889 -89.6439 73° East 234 269 10,800 300 Climbing FAA TRACON SMA TRACON (SMA)
Thu 12:28:35 AM 38.8944 -89.6175 75° East 245 282 10,900 150 Climbing FAA TRACON SMA TRACON (SMA)
Thu 12:28:55 AM 38.8992 -89.5897 78° East 255 293 10,900  Level FAA TRACON SMA TRACON (SMA)
Thu 12:29:15 AM 38.9083 -89.5553 71° East 265 305 10,900  Level FAA TRACON SMA TRACON (SMA)
Thu 12:29:35 AM 38.9144 -89.5261 75° East 272 313 10,900  Level FAA TRACON SMA TRACON (SMA)
Thu 12:29:55 AM 38.9206 -89.4967 75° East 277 319 10,900 450 Level FAA TRACON SMA TRACON (SMA)
Thu 12:30:15 AM 38.9283 -89.4606 75° East 274 315 11,200 1,050 Climbing FAA TRACON SMA TRACON (SMA)
Thu 12:30:35 AM 38.9353 -89.4333 72° East 262 302 11,600 1,200 Climbing FAA TRACON SMA TRACON (SMA)
Thu 12:30:55 AM 38.9406 -89.4067 76° East 253 291 12,000 1,350 Climbing FAA TRACON SMA TRACON (SMA)
Thu 12:31:15 AM 38.9475 -89.3744 75° East 244 281 12,500 1,200 Climbing FAA TRACON SMA TRACON (SMA)
Thu 12:31:35 AM 38.9528 -89.3492 75° East 238 274 12,800 900 Climbing FAA TRACON SMA TRACON (SMA)
Thu 12:31:55 AM 38.9592 -89.3244 72° East 238 274 13,100 1,200 Climbing FAA TRACON SMA TRACON (SMA)
Thu 12:32:15 AM 38.9661 -89.2925 74° East 240 276 13,600 1,200 Climbing FAA TRACON SMA TRACON (SMA)
Thu 12:32:35 AM 38.9714 -89.2672 75° East 241 277 13,900 900 Climbing FAA TRACON SMA TRACON (SMA)
Thu 12:32:55 AM 38.9769 -89.2411 75° East 243 280 14,200 1,050 Climbing FAA TRACON SMA TRACON (SMA)
Thu 12:33:15 AM 38.9839 -89.2086 75° East 245 282 14,600 1,350 Climbing FAA TRACON SMA TRACON (SMA)
Thu 12:33:35 AM 38.9894 -89.1828 75° East 247 284 15,100 1,050 Climbing FAA TRACON SMA TRACON (SMA)
Thu 12:33:55 AM 38.9947 -89.1564 76° East 246 283 15,300 900 Climbing FAA TRACON SMA TRACON (SMA)
Thu 12:34:15 AM 39.0019 -89.1231 74° East 249 287 15,700 750 Climbing FAA TRACON SMA TRACON (SMA)
Thu 12:34:35 AM 39.0047 -89.1100 75° East 250 288 15,800 150 Climbing FAA TRACON SMA TRACON (SMA)
Thu 12:34:55 AM 39.0047 -89.1100 360° North 250 288 15,800 1,019 Level FAA TRACON SMA TRACON (SMA)
Thu 12:35:28 AM 39.0211 -89.0778 57° Northeast 255 293 16,700 1,213 Climbing Kansas City Center
Thu 12:36:29 AM 39.0389 -88.9897 75° East 254 292 17,700 908 Climbing Kansas City Center
Thu 12:37:27 AM 39.0578 -88.9067 74° East 253 291 18,500 694 Climbing Kansas City Center
Thu 12:38:30 AM 39.0769 -88.8158 75° East 261 300 19,100 244 Climbing Kansas City Center
Thu 12:39:30 AM 39.0953 -88.7206 76° East 271 312 19,000 -50 Descending Kansas City Center
Thu 12:40:31 AM 39.1161 -88.6183 75° East 290 334 19,000  Level Kansas City Center
Thu 12:41:31 AM 39.1350 -88.5222 76° East 295 339 19,000  Level Kansas City Center
Thu 12:42:30 AM 39.1542 -88.4197 76° East 294 338 19,000  Level Kansas City Center
Thu 12:43:31 AM 39.1767 -88.3158 74° East 297 342 19,000  Level Kansas City Center
Thu 12:44:32 AM 39.1958 -88.2139 76° East 294 338 19,000  Level Kansas City Center
Thu 12:45:33 AM 39.2156 -88.1117 76° East 293 337 19,000  Level Kansas City Center
Thu 12:46:31 AM 39.2353 -88.0094 76° East 292 336 19,000  Level Kansas City Center
Thu 12:47:34 AM 39.2556 -87.9092 75° East 290 334 19,000  Level Kansas City Center
Thu 12:48:21 AM 39.2739 -87.8067 77° East 292 336 19,000  Level Indianapolis Center
Thu 12:49:21 AM 39.2939 -87.7031 76° East 295 339 19,000  Level Indianapolis Center
Thu 12:50:22 AM 39.3131 -87.6014 76° East 292 336 19,000  Level Indianapolis Center
Thu 12:51:22 AM 39.3325 -87.4989 76° East 292 336 19,000  Level Indianapolis Center
Thu 12:52:23 AM 39.3519 -87.3967 76° East 292 336 19,000  Level Indianapolis Center
Thu 12:53:23 AM 39.3711 -87.2919 77° East 295 339 19,000  Level Indianapolis Center
Thu 12:54:24 AM 39.3906 -87.1889 76° East 297 342 19,000  Level Indianapolis Center
Thu 12:55:24 AM 39.4100 -87.0847 76° East 296 341 19,000  Level Indianapolis Center
Thu 12:56:25 AM 39.4297 -86.9808 76° East 296 341 19,000  Level Indianapolis Center
Thu 12:57:25 AM 39.4483 -86.8758 77° East 297 342 19,000  Level Indianapolis Center
Thu 12:58:26 AM 39.4681 -86.7714 76° East 297 342 19,000  Level Indianapolis Center
Thu 12:59:26 AM 39.4875 -86.6664 76° East 297 342 19,000  Level Indianapolis Center
Thu 01:00:27 AM 39.5064 -86.5608 77° East 299 344 19,000  Level Indianapolis Center
Thu 01:01:27 AM 39.5253 -86.4561 77° East 298 343 19,000  Level Indianapolis Center
Thu 01:02:27 AM 39.5444 -86.3497 77° East 300 345 19,000  Level Indianapolis Center
Thu 01:03:28 AM 39.5628 -86.2444 77° East 300 345 19,000  Level Indianapolis Center
Thu 01:04:28 AM 39.5814 -86.1386 77° East 300 345 19,000  Level Indianapolis Center
Thu 01:05:29 AM 39.6000 -86.0322 77° East 301 346 19,000  Level Indianapolis Center
Thu 01:06:29 AM 39.6178 -85.9261 78° East 301 346 19,000  Level Indianapolis Center
Thu 01:07:30 AM 39.6378 -85.8192 76° East 303 349 19,000  Level Indianapolis Center
Thu 01:08:30 AM 39.6556 -85.7136 78° East 300 345 19,000  Level Indianapolis Center
Thu 01:09:31 AM 39.6750 -85.6081 77° East 300 345 19,000  Level Indianapolis Center
Thu 01:10:31 AM 39.6911 -85.5033 79° East 299 344 19,000  Level Indianapolis Center
Thu 01:11:31 AM 39.7100 -85.3961 77° East 300 345 19,000  Level Indianapolis Center
Thu 01:12:32 AM 39.7278 -85.2894 78° East 301 346 19,000  Level Indianapolis Center
Thu 01:13:32 AM 39.7467 -85.1836 77° East 300 345 19,000  Level Indianapolis Center
Thu 01:14:33 AM 39.7639 -85.0781 78° East 298 343 19,000  Level Indianapolis Center
Thu 01:15:33 AM 39.7814 -84.9711 78° East 300 345 19,000 -248 Level Indianapolis Center
Thu 01:16:34 AM 39.7986 -84.8628 78° East 304 350 18,500 -793 Descending Indianapolis Center
Thu 01:17:34 AM 39.8186 -84.7494 77° East 318 366 17,400 -1,050 Descending Indianapolis Center
Thu 01:18:34 AM 39.8381 -84.6367 77° East 315 362 16,400 -1,091 Descending Indianapolis Center
Thu 01:19:35 AM 39.8553 -84.5269 78° East 307 353 15,200 -1,163 Descending Indianapolis Center
Thu 01:20:12 AM 39.8642 -84.4656 79° East 302 348 14,500 -1,200 Descending Indianapolis Center
Thu 01:20:35 AM 39.8736 -84.4194 75° East 301 346 14,000 -1,000 Descending Indianapolis Center
Thu 01:21:36 AM 39.8864 -84.3311 79° East 295 339 13,100 -1,041 Descending Indianapolis Center
Thu 01:22:36 AM 39.9036 -84.2278 78° East 291 335 11,900 -1,100 Descending Indianapolis Center
Thu 01:23:36 AM 39.9189 -84.1281 79° East 279 321 10,900 -793 Descending Indianapolis Center
Thu 01:24:37 AM 39.9336 -84.0364 78° East 262 302 10,300 -496 Descending Indianapolis Center
Thu 01:25:37 AM 39.9475 -83.9472 78° East 252 290 9,900 -200 Descending Indianapolis Center
Thu 01:26:37 AM 39.9606 -83.8636 78° East 238 274 9,900 -397 Level Indianapolis Center
Thu 01:27:38 AM 39.9731 -83.7786 79° East 237 273 9,100 -992 Descending Indianapolis Center
Thu 01:28:38 AM 39.9872 -83.6858 79° East 253 291 7,900 -1,190 Descending Indianapolis Center
Thu 01:29:39 AM 40.0019 -83.5933 78° East 256 295 6,700 -1,190 Descending Indianapolis Center
Thu 01:30:39 AM 40.0156 -83.5017 79° East 253 291 5,500 -1,150 Descending Indianapolis Center
Thu 01:31:39 AM 40.0289 -83.4125 79° East 248 285 4,400 -793 Descending Indianapolis Center
Thu 01:32:40 AM 40.0419 -83.3231 79° East 245 282 3,900 -492 Descending Indianapolis Center
Thu 01:34:00 AM 40.0537 -83.1942 78° East  Level FlightAware Approximate
Thu 01:41:00 AM 40.0667 -83.0667 90° East  Level FlightAware Approximate
Thu 01:42:00 AM 40.0798 -83.0732 90° East  Level Estimated

Login

Don't have an account? Register now (free) for customized features, flight alerts, and more!